createdAt,value
2022-12-31T00:01:46.213Z,99521.19
2022-12-31T00:06:49.919Z,99510.77
2022-12-31T00:11:53.533Z,99490.79
2022-12-31T00:16:57.083Z,99479.40
2022-12-31T00:22:00.664Z,99469.82
2022-12-31T00:27:04.297Z,99468.84
2022-12-31T00:32:07.913Z,99474.06
2022-12-31T00:37:11.934Z,99470.14
2022-12-31T00:42:15.446Z,99457.06
2022-12-31T00:47:19.063Z,99435.63
2022-12-31T00:52:22.478Z,99423.32
2022-12-31T00:57:25.993Z,99418.83
2022-12-31T01:02:29.778Z,99415.02
2022-12-31T01:07:33.536Z,99416.48
2022-12-31T01:12:37.063Z,99430.44
2022-12-31T01:17:40.569Z,99416.65
2022-12-31T01:22:44.090Z,99402.99
2022-12-31T01:27:47.902Z,99402.46
2022-12-31T01:32:51.315Z,99400.80
2022-12-31T01:37:55.140Z,99397.52
2022-12-31T01:42:59.269Z,99385.70
2022-12-31T01:48:02.999Z,99363.01
2022-12-31T01:53:09.165Z,99369.55
2022-12-31T01:58:27.139Z,99373.32
2022-12-31T02:03:31.326Z,99371.42
2022-12-31T02:08:41.767Z,99368.45
2022-12-31T02:13:45.863Z,99381.06
2022-12-31T02:19:05.371Z,99392.08
2022-12-31T02:24:41.020Z,99379.52
2022-12-31T02:30:09.526Z,99378.52
2022-12-31T02:35:18.670Z,99372.79
2022-12-31T02:40:23.239Z,99369.61
2022-12-31T02:46:06.186Z,99358.28
2022-12-31T02:51:32.499Z,99362.80
2022-12-31T02:56:50.047Z,99359.17
2022-12-31T03:02:16.193Z,99362.30
2022-12-31T03:07:28.414Z,99349.04
2022-12-31T03:12:47.187Z,99342.25
2022-12-31T03:17:59.938Z,99335.52
2022-12-31T03:23:08.459Z,99325.19
2022-12-31T03:28:16.048Z,99326.34
2022-12-31T03:33:19.880Z,99333.75
2022-12-31T03:38:23.292Z,99338.89
2022-12-31T03:43:26.809Z,99336.89
2022-12-31T03:48:30.835Z,99322.15
2022-12-31T03:53:35.906Z,99327.10
2022-12-31T03:58:39.304Z,99326.49
2022-12-31T04:03:42.817Z,99325.09
2022-12-31T04:08:46.235Z,99317.83
2022-12-31T04:13:49.845Z,99326.80
2022-12-31T04:18:53.260Z,99335.02
2022-12-31T04:23:56.880Z,99318.83
2022-12-31T04:29:00.495Z,99309.30
2022-12-31T04:34:04.115Z,99310.55
2022-12-31T04:39:07.746Z,99320.13
2022-12-31T04:44:11.145Z,99324.29
2022-12-31T04:49:14.776Z,99327.76
2022-12-31T04:54:18.279Z,99331.59
2022-12-31T04:59:21.909Z,99326.53
2022-12-31T05:04:25.925Z,99319.08
2022-12-31T05:09:30.054Z,99310.57
2022-12-31T05:14:33.466Z,99312.52
2022-12-31T05:19:36.881Z,99324.70
2022-12-31T05:24:40.403Z,99328.20
2022-12-31T05:29:43.910Z,99330.85
2022-12-31T05:34:47.643Z,99336.39
2022-12-31T05:39:51.147Z,99338.83
2022-12-31T05:44:54.669Z,99329.84
2022-12-31T05:49:58.181Z,99336.40
2022-12-31T05:55:01.696Z,99334.33
2022-12-31T06:00:07.182Z,99339.91
2022-12-31T06:05:10.730Z,99324.65
2022-12-31T06:10:14.160Z,99333.05
2022-12-31T06:15:18.012Z,99345.02
2022-12-31T06:20:21.434Z,99345.80
2022-12-31T06:25:24.936Z,99335.93
2022-12-31T06:30:28.560Z,99341.08
2022-12-31T06:35:32.073Z,99334.50
2022-12-31T06:40:38.056Z,99341.64
2022-12-31T06:45:41.462Z,99348.23
2022-12-31T06:50:44.965Z,99366.67
2022-12-31T06:55:49.737Z,99374.45
2022-12-31T07:01:31.803Z,99364.66
2022-12-31T07:06:48.357Z,99373.60
2022-12-31T07:11:56.683Z,99390.16
2022-12-31T07:17:21.602Z,99393.86
2022-12-31T07:22:25.839Z,99393.06
2022-12-31T07:27:47.384Z,99392.07
2022-12-31T07:33:19.261Z,99394.59
2022-12-31T07:38:37.617Z,99406.72
2022-12-31T07:44:11.659Z,99405.61
2022-12-31T07:49:16.082Z,99419.03
2022-12-31T07:54:19.498Z,99424.00
2022-12-31T07:59:53.529Z,99422.45
2022-12-31T08:05:38.317Z,99417.45
2022-12-31T08:11:03.842Z,99425.24
2022-12-31T08:16:11.996Z,99436.74
2022-12-31T08:21:53.988Z,99431.88
2022-12-31T08:27:17.366Z,99428.73
2022-12-31T08:32:32.360Z,99436.30
2022-12-31T08:37:43.971Z,99447.55
2022-12-31T08:43:18.808Z,99455.80
2022-12-31T08:48:41.369Z,99462.48
2022-12-31T08:53:45.302Z,99457.56
2022-12-31T08:59:30.083Z,99462.52
2022-12-31T09:04:45.480Z,99455.42
2022-12-31T09:10:06.698Z,99436.93
2022-12-31T09:15:20.866Z,99450.02
2022-12-31T09:20:41.818Z,99446.84
2022-12-31T09:26:01.186Z,99441.14
2022-12-31T09:31:14.209Z,99443.92
2022-12-31T09:36:36.582Z,99442.51
2022-12-31T09:42:22.994Z,99431.70
2022-12-31T09:48:15.883Z,99414.10
2022-12-31T09:53:27.068Z,99409.73
2022-12-31T09:58:51.675Z,99419.69
2022-12-31T10:04:10.447Z,99400.31
2022-12-31T10:09:58.816Z,99399.90
2022-12-31T10:15:24.347Z,99379.88
2022-12-31T10:20:47.125Z,99375.58
2022-12-31T10:25:59.639Z,99359.20
2022-12-31T10:31:17.292Z,99344.09
2022-12-31T10:36:33.228Z,99340.89
2022-12-31T10:42:04.457Z,99337.64
2022-12-31T10:47:26.611Z,99331.38
2022-12-31T10:52:35.641Z,99328.82
2022-12-31T10:58:11.017Z,99322.25
2022-12-31T11:03:32.924Z,99317.23
2022-12-31T11:09:07.714Z,99313.43
2022-12-31T11:14:23.017Z,99303.09
2022-12-31T11:20:04.003Z,99290.51
2022-12-31T11:25:33.832Z,99286.03
2022-12-31T11:30:56.181Z,99265.25
2022-12-31T11:36:38.722Z,99244.86
2022-12-31T11:42:04.663Z,99244.66
2022-12-31T11:47:49.649Z,99234.45
2022-12-31T11:53:44.772Z,99225.98
2022-12-31T11:58:51.768Z,99224.25
2022-12-31T12:03:55.449Z,99221.19
2022-12-31T12:09:13.754Z,99206.14
2022-12-31T12:14:37.952Z,99192.14
2022-12-31T12:19:53.447Z,99194.02
2022-12-31T12:25:16.534Z,99200.95
2022-12-31T12:30:22.400Z,99189.47
2022-12-31T12:35:31.884Z,99182.13
2022-12-31T12:40:36.104Z,99174.06
2022-12-31T12:45:51.761Z,99174.88
2022-12-31T12:50:56.014Z,99169.98
2022-12-31T12:56:07.212Z,99164.13
2022-12-31T13:01:21.431Z,99161.23
2022-12-31T13:06:37.222Z,99150.45
2022-12-31T13:12:05.580Z,99148.86
2022-12-31T13:17:32.957Z,99145.72
2022-12-31T13:22:45.069Z,99148.98
2022-12-31T13:27:54.549Z,99132.20
2022-12-31T13:33:04.698Z,99130.04
2022-12-31T13:38:23.476Z,99139.99
2022-12-31T13:43:50.997Z,99162.54
2022-12-31T13:49:03.472Z,99170.69
2022-12-31T13:54:16.005Z,99165.52
2022-12-31T13:59:29.272Z,99170.24
2022-12-31T14:04:48.018Z,99172.75
2022-12-31T14:09:51.427Z,99187.12
2022-12-31T14:15:00.995Z,99186.16
2022-12-31T14:20:32.970Z,99178.58
2022-12-31T14:25:46.827Z,99173.78
2022-12-31T14:30:53.540Z,99190.09
2022-12-31T14:36:25.498Z,99195.48
2022-12-31T14:41:50.213Z,99197.98
2022-12-31T14:47:41.242Z,99180.31
2022-12-31T14:53:10.051Z,99169.50
2022-12-31T14:58:30.016Z,99176.16
2022-12-31T15:03:45.108Z,99174.12
2022-12-31T15:09:08.815Z,99174.99
2022-12-31T15:14:37.585Z,99192.83
2022-12-31T15:20:11.498Z,99179.73
2022-12-31T15:25:19.997Z,99170.71
2022-12-31T15:30:30.659Z,99180.16
2022-12-31T15:35:56.217Z,99180.82
2022-12-31T15:41:00.953Z,99186.70
2022-12-31T15:46:16.715Z,99200.52
2022-12-31T15:51:26.112Z,99206.84
2022-12-31T15:56:39.767Z,99209.96
2022-12-31T16:01:45.160Z,99207.00
2022-12-31T16:06:51.198Z,99207.15
2022-12-31T16:11:57.387Z,99210.77
2022-12-31T16:17:01.720Z,99220.82
2022-12-31T16:22:17.260Z,99229.87
2022-12-31T16:27:20.929Z,99217.58
2022-12-31T16:32:24.549Z,99213.87
2022-12-31T16:37:28.075Z,99207.73
2022-12-31T16:42:31.690Z,99209.55
2022-12-31T16:47:38.473Z,99211.05
2022-12-31T16:52:45.475Z,99214.17
2022-12-31T16:58:00.669Z,99225.84
2022-12-31T17:03:22.359Z,99236.13
2022-12-31T17:08:42.222Z,99244.06
2022-12-31T17:13:54.861Z,99246.98
2022-12-31T17:18:58.859Z,99246.89
2022-12-31T17:24:06.237Z,99257.20
2022-12-31T17:29:26.075Z,99262.27
2022-12-31T17:34:33.891Z,99252.32
2022-12-31T17:40:49.856Z,99254.03
2022-12-31T17:45:26.172Z,99262.52
2022-12-31T17:50:29.790Z,99266.64
2022-12-31T17:55:33.941Z,99282.77
2022-12-31T18:00:37.788Z,99275.57
2022-12-31T18:05:41.263Z,99272.56
2022-12-31T18:10:45.507Z,99277.29
2022-12-31T18:15:48.800Z,99284.83
2022-12-31T18:20:55.362Z,99289.77
2022-12-31T18:25:58.907Z,99297.80
2022-12-31T18:31:02.525Z,99309.46
2022-12-31T18:36:12.285Z,99283.48
2022-12-31T18:41:21.063Z,99272.77
2022-12-31T18:46:25.565Z,99258.95
2022-12-31T18:51:32.025Z,99266.02
2022-12-31T18:56:36.074Z,99272.10
2022-12-31T19:01:41.311Z,99276.08
2022-12-31T19:06:44.959Z,99284.91
2022-12-31T19:11:49.285Z,99290.47
2022-12-31T19:16:54.495Z,99283.21
2022-12-31T19:21:57.965Z,99290.98
2022-12-31T19:27:02.511Z,99298.64
2022-12-31T19:32:06.332Z,99299.27
2022-12-31T19:37:15.715Z,99306.19
2022-12-31T19:42:19.290Z,99301.42
2022-12-31T19:47:22.903Z,99294.19
2022-12-31T19:52:26.430Z,99296.91
2022-12-31T19:57:29.837Z,99294.67
2022-12-31T20:03:36.976Z,99298.40
2022-12-31T20:08:43.450Z,99294.61
2022-12-31T20:13:48.582Z,99300.89
2022-12-31T20:18:52.503Z,99295.98
2022-12-31T20:23:56.132Z,99296.04
2022-12-31T20:28:59.739Z,99295.02
2022-12-31T20:34:03.354Z,99286.39
2022-12-31T20:39:07.484Z,99284.92
2022-12-31T20:44:11.110Z,99287.40
2022-12-31T20:49:14.722Z,99278.30
2022-12-31T20:54:18.647Z,99272.77
2022-12-31T20:59:22.058Z,99274.58
2022-12-31T21:04:26.114Z,99266.80
2022-12-31T21:09:29.603Z,99271.11
2022-12-31T21:14:33.123Z,99260.61
2022-12-31T21:19:36.849Z,99251.20
2022-12-31T21:24:40.250Z,99254.27
2022-12-31T21:30:16.364Z,99252.77
2022-12-31T21:35:41.260Z,99270.00
2022-12-31T21:40:31.669Z,99271.11
2022-12-31T21:45:35.082Z,99273.42
2022-12-31T21:50:38.706Z,99273.11
2022-12-31T21:56:00.462Z,99255.27
2022-12-31T22:01:23.081Z,99250.23
2022-12-31T22:06:27.432Z,99261.73
2022-12-31T22:11:30.758Z,99268.98
2022-12-31T22:16:34.499Z,99274.01
2022-12-31T22:21:38.091Z,99277.48
2022-12-31T22:26:46.459Z,99277.67
2022-12-31T22:31:50.538Z,99287.44
2022-12-31T22:36:54.154Z,99294.38
2022-12-31T22:41:57.669Z,99286.93
2022-12-31T22:47:01.146Z,99276.20
2022-12-31T22:52:08.806Z,99269.33
2022-12-31T22:57:19.688Z,99260.11
2022-12-31T23:02:23.824Z,99254.87
2022-12-31T23:07:27.337Z,99270.40
2022-12-31T23:12:30.747Z,99272.30
2022-12-31T23:17:52.899Z,99283.70
2022-12-31T23:23:08.779Z,99297.39
2022-12-31T23:28:15.568Z,99283.02
2022-12-31T23:33:24.466Z,99280.14
2022-12-31T23:38:27.952Z,99278.37
2022-12-31T23:43:31.469Z,99280.30
2022-12-31T23:48:35.092Z,99273.20
2022-12-31T23:53:39.010Z,99272.68
2022-12-31T23:58:42.736Z,99293.41
